sensor_id;sensor_type;location;lat;lon;timestamp;P1;durP1;ratioP1;P2;durP2;ratioP2
53710;SDS011;39605;52.704;6.752;2023-09-19T00:02:01;2.15;;;0.30;;
53710;SDS011;39605;52.704;6.752;2023-09-19T00:04:32;3.45;;;0.40;;
53710;SDS011;39605;52.704;6.752;2023-09-19T00:06:59;1.40;;;0.30;;
53710;SDS011;39605;52.704;6.752;2023-09-19T00:09:28;3.42;;;0.45;;
53710;SDS011;39605;52.704;6.752;2023-09-19T00:11:55;3.10;;;0.30;;
53710;SDS011;39605;52.704;6.752;2023-09-19T00:14:24;2.88;;;0.32;;
53710;SDS011;39605;52.704;6.752;2023-09-19T00:16:50;5.63;;;0.32;;
53710;SDS011;39605;52.704;6.752;2023-09-19T00:19:16;3.15;;;0.35;;
53710;SDS011;39605;52.704;6.752;2023-09-19T00:21:42;4.70;;;0.50;;
53710;SDS011;39605;52.704;6.752;2023-09-19T00:24:08;4.47;;;0.60;;
53710;SDS011;39605;52.704;6.752;2023-09-19T00:26:34;3.85;;;0.52;;
53710;SDS011;39605;52.704;6.752;2023-09-19T00:29:01;3.55;;;0.60;;
53710;SDS011;39605;52.704;6.752;2023-09-19T00:31:28;5.50;;;0.63;;
53710;SDS011;39605;52.704;6.752;2023-09-19T00:33:55;5.05;;;0.77;;
53710;SDS011;39605;52.704;6.752;2023-09-19T00:36:25;3.90;;;0.52;;
53710;SDS011;39605;52.704;6.752;2023-09-19T00:38:51;3.75;;;1.02;;
53710;SDS011;39605;52.704;6.752;2023-09-19T00:41:18;6.00;;;0.80;;
53710;SDS011;39605;52.704;6.752;2023-09-19T00:43:44;6.38;;;0.60;;
53710;SDS011;39605;52.704;6.752;2023-09-19T00:46:10;3.75;;;0.65;;
53710;SDS011;39605;52.704;6.752;2023-09-19T00:48:40;7.07;;;0.75;;
53710;SDS011;39605;52.704;6.752;2023-09-19T00:51:08;6.05;;;0.60;;
53710;SDS011;39605;52.704;6.752;2023-09-19T00:53:35;7.65;;;0.63;;
53710;SDS011;39605;52.704;6.752;2023-09-19T00:56:02;7.18;;;0.65;;
53710;SDS011;39605;52.704;6.752;2023-09-19T00:58:32;8.07;;;0.90;;
53710;SDS011;39605;52.704;6.752;2023-09-19T01:01:00;9.20;;;1.00;;
53710;SDS011;39605;52.704;6.752;2023-09-19T01:03:27;8.60;;;0.93;;
53710;SDS011;39605;52.704;6.752;2023-09-19T01:05:53;7.45;;;1.00;;
53710;SDS011;39605;52.704;6.752;2023-09-19T01:08:19;9.15;;;0.98;;
53710;SDS011;39605;52.704;6.752;2023-09-19T01:10:52;6.22;;;1.30;;
53710;SDS011;39605;52.704;6.752;2023-09-19T01:13:22;7.43;;;1.35;;
53710;SDS011;39605;52.704;6.752;2023-09-19T01:15:58;5.80;;;1.70;;
53710;SDS011;39605;52.704;6.752;2023-09-19T01:18:45;6.05;;;1.17;;
53710;SDS011;39605;52.704;6.752;2023-09-19T01:21:15;8.68;;;0.95;;
53710;SDS011;39605;52.704;6.752;2023-09-19T01:29:17;7.68;;;1.35;;
53710;SDS011;39605;52.704;6.752;2023-09-19T01:31:46;7.97;;;1.27;;
53710;SDS011;39605;52.704;6.752;2023-09-19T01:34:13;5.68;;;1.20;;
53710;SDS011;39605;52.704;6.752;2023-09-19T01:36:39;9.27;;;1.45;;
53710;SDS011;39605;52.704;6.752;2023-09-19T01:39:05;10.48;;;1.30;;
53710;SDS011;39605;52.704;6.752;2023-09-19T01:41:47;5.25;;;0.98;;
53710;SDS011;39605;52.704;6.752;2023-09-19T01:44:19;6.55;;;1.08;;
53710;SDS011;39605;52.704;6.752;2023-09-19T01:46:48;9.23;;;1.25;;
53710;SDS011;39605;52.704;6.752;2023-09-19T01:49:17;8.23;;;1.27;;
53710;SDS011;39605;52.704;6.752;2023-09-19T01:51:54;9.80;;;1.52;;
53710;SDS011;39605;52.704;6.752;2023-09-19T01:54:32;8.73;;;1.42;;
53710;SDS011;39605;52.704;6.752;2023-09-19T01:57:07;8.75;;;1.60;;
53710;SDS011;39605;52.704;6.752;2023-09-19T01:59:38;9.32;;;1.17;;
53710;SDS011;39605;52.704;6.752;2023-09-19T02:02:07;12.75;;;1.42;;
53710;SDS011;39605;52.704;6.752;2023-09-19T02:04:34;7.78;;;1.52;;
53710;SDS011;39605;52.704;6.752;2023-09-19T02:07:00;9.20;;;1.27;;
53710;SDS011;39605;52.704;6.752;2023-09-19T02:09:26;7.85;;;1.60;;
53710;SDS011;39605;52.704;6.752;2023-09-19T02:11:52;7.00;;;1.25;;
53710;SDS011;39605;52.704;6.752;2023-09-19T02:14:20;11.18;;;1.17;;
53710;SDS011;39605;52.704;6.752;2023-09-19T02:16:47;8.90;;;1.27;;
53710;SDS011;39605;52.704;6.752;2023-09-19T02:19:15;10.75;;;1.00;;
53710;SDS011;39605;52.704;6.752;2023-09-19T02:21:42;5.05;;;0.80;;
53710;SDS011;39605;52.704;6.752;2023-09-19T02:24:08;8.23;;;1.02;;
53710;SDS011;39605;52.704;6.752;2023-09-19T02:26:35;10.57;;;1.52;;
53710;SDS011;39605;52.704;6.752;2023-09-19T02:29:02;6.50;;;0.93;;
53710;SDS011;39605;52.704;6.752;2023-09-19T02:31:29;10.80;;;1.15;;
53710;SDS011;39605;52.704;6.752;2023-09-19T02:33:56;9.05;;;1.23;;
53710;SDS011;39605;52.704;6.752;2023-09-19T02:36:22;7.45;;;1.00;;
53710;SDS011;39605;52.704;6.752;2023-09-19T02:38:48;8.35;;;1.10;;
53710;SDS011;39605;52.704;6.752;2023-09-19T02:41:15;7.07;;;1.02;;
53710;SDS011;39605;52.704;6.752;2023-09-19T02:43:41;7.90;;;1.05;;
53710;SDS011;39605;52.704;6.752;2023-09-19T02:46:08;5.40;;;0.90;;
53710;SDS011;39605;52.704;6.752;2023-09-19T02:48:34;6.85;;;1.05;;
53710;SDS011;39605;52.704;6.752;2023-09-19T02:51:01;6.25;;;1.08;;
53710;SDS011;39605;52.704;6.752;2023-09-19T02:53:30;8.15;;;0.98;;
53710;SDS011;39605;52.704;6.752;2023-09-19T02:55:57;5.15;;;0.77;;
53710;SDS011;39605;52.704;6.752;2023-09-19T02:58:24;9.60;;;0.82;;
53710;SDS011;39605;52.704;6.752;2023-09-19T03:00:50;8.82;;;1.08;;
53710;SDS011;39605;52.704;6.752;2023-09-19T03:03:16;7.68;;;0.63;;
53710;SDS011;39605;52.704;6.752;2023-09-19T03:05:43;9.05;;;1.27;;
53710;SDS011;39605;52.704;6.752;2023-09-19T03:08:13;6.55;;;1.13;;
53710;SDS011;39605;52.704;6.752;2023-09-19T03:10:42;3.83;;;1.00;;
53710;SDS011;39605;52.704;6.752;2023-09-19T03:13:08;7.55;;;0.80;;
53710;SDS011;39605;52.704;6.752;2023-09-19T03:15:35;4.30;;;0.70;;
53710;SDS011;39605;52.704;6.752;2023-09-19T03:18:04;7.95;;;1.20;;
53710;SDS011;39605;52.704;6.752;2023-09-19T03:20:31;5.13;;;0.98;;
53710;SDS011;39605;52.704;6.752;2023-09-19T03:22:57;6.13;;;1.00;;
53710;SDS011;39605;52.704;6.752;2023-09-19T03:25:23;6.63;;;0.98;;
53710;SDS011;39605;52.704;6.752;2023-09-19T03:27:49;9.73;;;1.02;;
53710;SDS011;39605;52.704;6.752;2023-09-19T03:30:15;8.57;;;1.15;;
53710;SDS011;39605;52.704;6.752;2023-09-19T03:32:46;5.38;;;0.70;;
53710;SDS011;39605;52.704;6.752;2023-09-19T03:35:12;4.63;;;0.70;;
53710;SDS011;39605;52.704;6.752;2023-09-19T03:37:40;6.43;;;1.00;;
53710;SDS011;39605;52.704;6.752;2023-09-19T03:40:07;4.57;;;0.70;;
53710;SDS011;39605;52.704;6.752;2023-09-19T03:42:33;6.45;;;0.95;;
53710;SDS011;39605;52.704;6.752;2023-09-19T03:45:01;6.25;;;0.82;;
53710;SDS011;39605;52.704;6.752;2023-09-19T03:47:27;7.30;;;0.90;;
53710;SDS011;39605;52.704;6.752;2023-09-19T03:49:53;9.38;;;1.40;;
53710;SDS011;39605;52.704;6.752;2023-09-19T03:52:19;5.88;;;1.17;;
53710;SDS011;39605;52.704;6.752;2023-09-19T03:54:45;6.57;;;1.00;;
53710;SDS011;39605;52.704;6.752;2023-09-19T03:57:12;6.95;;;1.08;;
53710;SDS011;39605;52.704;6.752;2023-09-19T03:59:41;10.32;;;1.27;;
53710;SDS011;39605;52.704;6.752;2023-09-19T04:02:08;6.07;;;1.13;;
53710;SDS011;39605;52.704;6.752;2023-09-19T04:04:46;6.95;;;1.45;;
53710;SDS011;39605;52.704;6.752;2023-09-19T04:07:12;9.43;;;1.63;;
53710;SDS011;39605;52.704;6.752;2023-09-19T04:09:38;8.45;;;1.83;;
53710;SDS011;39605;52.704;6.752;2023-09-19T04:12:05;9.57;;;1.65;;
53710;SDS011;39605;52.704;6.752;2023-09-19T04:14:31;8.70;;;1.33;;
53710;SDS011;39605;52.704;6.752;2023-09-19T04:16:57;11.52;;;1.63;;
53710;SDS011;39605;52.704;6.752;2023-09-19T04:19:23;10.07;;;1.55;;
53710;SDS011;39605;52.704;6.752;2023-09-19T04:21:49;9.02;;;1.52;;
53710;SDS011;39605;52.704;6.752;2023-09-19T04:24:15;10.27;;;1.60;;
53710;SDS011;39605;52.704;6.752;2023-09-19T04:26:44;6.18;;;1.00;;
53710;SDS011;39605;52.704;6.752;2023-09-19T04:29:10;8.63;;;1.80;;
53710;SDS011;39605;52.704;6.752;2023-09-19T04:31:38;14.90;;;1.88;;
53710;SDS011;39605;52.704;6.752;2023-09-19T04:34:05;13.38;;;1.77;;
53710;SDS011;39605;52.704;6.752;2023-09-19T04:36:31;12.13;;;1.88;;
53710;SDS011;39605;52.704;6.752;2023-09-19T04:38:57;11.43;;;1.40;;
53710;SDS011;39605;52.704;6.752;2023-09-19T04:41:23;9.13;;;1.58;;
53710;SDS011;39605;52.704;6.752;2023-09-19T04:43:49;11.55;;;1.63;;
53710;SDS011;39605;52.704;6.752;2023-09-19T04:46:16;9.70;;;1.33;;
53710;SDS011;39605;52.704;6.752;2023-09-19T04:48:43;7.95;;;1.63;;
53710;SDS011;39605;52.704;6.752;2023-09-19T04:51:09;9.18;;;1.58;;
53710;SDS011;39605;52.704;6.752;2023-09-19T04:53:35;13.25;;;1.42;;
53710;SDS011;39605;52.704;6.752;2023-09-19T04:56:02;14.43;;;2.10;;
53710;SDS011;39605;52.704;6.752;2023-09-19T04:58:28;10.98;;;1.45;;
53710;SDS011;39605;52.704;6.752;2023-09-19T05:00:55;9.88;;;1.42;;
53710;SDS011;39605;52.704;6.752;2023-09-19T05:03:21;8.70;;;1.63;;
53710;SDS011;39605;52.704;6.752;2023-09-19T05:05:47;10.98;;;1.60;;
53710;SDS011;39605;52.704;6.752;2023-09-19T05:08:14;14.43;;;1.75;;
53710;SDS011;39605;52.704;6.752;2023-09-19T05:10:40;11.50;;;0.90;;
53710;SDS011;39605;52.704;6.752;2023-09-19T05:13:06;14.73;;;1.67;;
53710;SDS011;39605;52.704;6.752;2023-09-19T05:15:33;12.43;;;2.25;;
53710;SDS011;39605;52.704;6.752;2023-09-19T05:18:00;7.97;;;1.27;;
53710;SDS011;39605;52.704;6.752;2023-09-19T05:20:26;8.10;;;1.88;;
53710;SDS011;39605;52.704;6.752;2023-09-19T05:23:04;11.05;;;1.90;;
53710;SDS011;39605;52.704;6.752;2023-09-19T05:25:33;10.30;;;1.35;;
53710;SDS011;39605;52.704;6.752;2023-09-19T05:28:02;12.90;;;1.17;;
53710;SDS011;39605;52.704;6.752;2023-09-19T05:30:28;10.73;;;1.55;;
53710;SDS011;39605;52.704;6.752;2023-09-19T05:32:55;8.90;;;1.60;;
53710;SDS011;39605;52.704;6.752;2023-09-19T05:35:22;8.68;;;1.40;;
53710;SDS011;39605;52.704;6.752;2023-09-19T05:37:50;9.80;;;1.35;;
53710;SDS011;39605;52.704;6.752;2023-09-19T05:40:17;10.32;;;1.77;;
53710;SDS011;39605;52.704;6.752;2023-09-19T05:42:43;10.63;;;1.60;;
53710;SDS011;39605;52.704;6.752;2023-09-19T05:45:09;7.78;;;1.00;;
53710;SDS011;39605;52.704;6.752;2023-09-19T05:47:42;8.65;;;1.52;;
53710;SDS011;39605;52.704;6.752;2023-09-19T05:50:10;11.93;;;1.20;;
53710;SDS011;39605;52.704;6.752;2023-09-19T05:52:37;8.80;;;1.42;;
53710;SDS011;39605;52.704;6.752;2023-09-19T05:55:06;8.15;;;1.48;;
53710;SDS011;39605;52.704;6.752;2023-09-19T05:57:36;11.27;;;2.08;;
53710;SDS011;39605;52.704;6.752;2023-09-19T06:00:07;11.43;;;1.60;;
53710;SDS011;39605;52.704;6.752;2023-09-19T06:02:36;11.25;;;1.70;;
53710;SDS011;39605;52.704;6.752;2023-09-19T06:05:04;9.02;;;1.33;;
53710;SDS011;39605;52.704;6.752;2023-09-19T06:07:31;8.65;;;1.27;;
53710;SDS011;39605;52.704;6.752;2023-09-19T06:10:02;11.07;;;1.80;;
53710;SDS011;39605;52.704;6.752;2023-09-19T06:12:30;13.90;;;1.50;;
53710;SDS011;39605;52.704;6.752;2023-09-19T06:14:58;11.45;;;1.50;;
53710;SDS011;39605;52.704;6.752;2023-09-19T06:17:24;9.32;;;1.35;;
53710;SDS011;39605;52.704;6.752;2023-09-19T06:19:52;9.45;;;1.38;;
53710;SDS011;39605;52.704;6.752;2023-09-19T06:22:18;8.52;;;1.40;;
53710;SDS011;39605;52.704;6.752;2023-09-19T06:24:44;8.18;;;1.20;;
53710;SDS011;39605;52.704;6.752;2023-09-19T06:27:12;8.68;;;1.45;;
53710;SDS011;39605;52.704;6.752;2023-09-19T06:29:38;9.13;;;1.10;;
53710;SDS011;39605;52.704;6.752;2023-09-19T06:32:08;10.73;;;1.48;;
53710;SDS011;39605;52.704;6.752;2023-09-19T06:34:35;8.30;;;1.30;;
53710;SDS011;39605;52.704;6.752;2023-09-19T06:37:02;8.52;;;1.40;;
53710;SDS011;39605;52.704;6.752;2023-09-19T06:39:28;7.70;;;1.35;;
53710;SDS011;39605;52.704;6.752;2023-09-19T06:41:56;8.73;;;1.35;;
53710;SDS011;39605;52.704;6.752;2023-09-19T06:44:22;10.02;;;1.70;;
53710;SDS011;39605;52.704;6.752;2023-09-19T06:46:49;13.63;;;1.40;;
53710;SDS011;39605;52.704;6.752;2023-09-19T06:49:16;11.48;;;1.13;;
53710;SDS011;39605;52.704;6.752;2023-09-19T06:51:43;8.60;;;1.65;;
53710;SDS011;39605;52.704;6.752;2023-09-19T06:54:09;11.68;;;1.88;;
53710;SDS011;39605;52.704;6.752;2023-09-19T06:56:35;6.93;;;1.02;;
53710;SDS011;39605;52.704;6.752;2023-09-19T06:59:01;8.85;;;1.65;;
53710;SDS011;39605;52.704;6.752;2023-09-19T07:01:31;9.27;;;1.45;;
53710;SDS011;39605;52.704;6.752;2023-09-19T07:03:57;7.80;;;1.30;;
53710;SDS011;39605;52.704;6.752;2023-09-19T07:06:23;6.88;;;1.27;;
53710;SDS011;39605;52.704;6.752;2023-09-19T07:08:49;10.52;;;1.40;;
53710;SDS011;39605;52.704;6.752;2023-09-19T07:11:15;9.07;;;1.35;;
53710;SDS011;39605;52.704;6.752;2023-09-19T07:13:41;9.15;;;1.63;;
53710;SDS011;39605;52.704;6.752;2023-09-19T07:16:08;9.90;;;1.63;;
53710;SDS011;39605;52.704;6.752;2023-09-19T07:18:52;5.78;;;1.00;;
53710;SDS011;39605;52.704;6.752;2023-09-19T07:21:18;9.07;;;1.00;;
53710;SDS011;39605;52.704;6.752;2023-09-19T07:23:44;11.20;;;1.50;;
53710;SDS011;39605;52.704;6.752;2023-09-19T07:26:10;7.82;;;1.30;;
53710;SDS011;39605;52.704;6.752;2023-09-19T07:28:36;8.10;;;1.10;;
53710;SDS011;39605;52.704;6.752;2023-09-19T07:31:02;7.30;;;1.73;;
53710;SDS011;39605;52.704;6.752;2023-09-19T07:33:30;8.05;;;1.15;;
53710;SDS011;39605;52.704;6.752;2023-09-19T07:35:56;9.70;;;1.17;;
53710;SDS011;39605;52.704;6.752;2023-09-19T07:38:22;7.25;;;1.20;;
53710;SDS011;39605;52.704;6.752;2023-09-19T07:40:48;10.50;;;1.10;;
53710;SDS011;39605;52.704;6.752;2023-09-19T07:43:14;9.88;;;1.40;;
53710;SDS011;39605;52.704;6.752;2023-09-19T07:45:40;7.60;;;0.98;;
53710;SDS011;39605;52.704;6.752;2023-09-19T07:48:06;10.02;;;1.40;;
53710;SDS011;39605;52.704;6.752;2023-09-19T07:50:39;11.10;;;1.40;;
53710;SDS011;39605;52.704;6.752;2023-09-19T07:53:08;6.90;;;1.08;;
53710;SDS011;39605;52.704;6.752;2023-09-19T07:55:34;7.25;;;1.30;;
53710;SDS011;39605;52.704;6.752;2023-09-19T07:58:00;8.02;;;1.10;;
53710;SDS011;39605;52.704;6.752;2023-09-19T08:00:29;11.02;;;1.25;;
53710;SDS011;39605;52.704;6.752;2023-09-19T08:02:55;7.15;;;1.23;;
53710;SDS011;39605;52.704;6.752;2023-09-19T08:05:22;9.95;;;1.30;;
53710;SDS011;39605;52.704;6.752;2023-09-19T08:07:48;8.52;;;1.30;;
53710;SDS011;39605;52.704;6.752;2023-09-19T08:10:14;10.48;;;2.13;;
53710;SDS011;39605;52.704;6.752;2023-09-19T08:12:44;10.63;;;1.05;;
53710;SDS011;39605;52.704;6.752;2023-09-19T08:15:14;10.82;;;1.70;;
53710;SDS011;39605;52.704;6.752;2023-09-19T08:17:40;12.82;;;1.55;;
53710;SDS011;39605;52.704;6.752;2023-09-19T08:20:06;15.25;;;2.22;;
53710;SDS011;39605;52.704;6.752;2023-09-19T08:22:33;12.30;;;1.40;;
53710;SDS011;39605;52.704;6.752;2023-09-19T08:24:59;10.15;;;1.88;;
53710;SDS011;39605;52.704;6.752;2023-09-19T08:27:29;9.85;;;1.48;;
53710;SDS011;39605;52.704;6.752;2023-09-19T08:29:56;10.20;;;1.23;;
53710;SDS011;39605;52.704;6.752;2023-09-19T08:32:22;12.30;;;2.22;;
53710;SDS011;39605;52.704;6.752;2023-09-19T08:34:50;13.43;;;1.38;;
53710;SDS011;39605;52.704;6.752;2023-09-19T08:37:16;8.07;;;1.33;;
53710;SDS011;39605;52.704;6.752;2023-09-19T08:39:44;10.18;;;1.55;;
53710;SDS011;39605;52.704;6.752;2023-09-19T08:42:10;9.00;;;1.63;;
53710;SDS011;39605;52.704;6.752;2023-09-19T08:44:37;10.77;;;1.52;;
53710;SDS011;39605;52.704;6.752;2023-09-19T08:49:36;10.50;;;2.00;;
53710;SDS011;39605;52.704;6.752;2023-09-19T08:52:09;13.30;;;1.88;;
53710;SDS011;39605;52.704;6.752;2023-09-19T08:54:37;11.93;;;1.52;;
53710;SDS011;39605;52.704;6.752;2023-09-19T08:57:05;8.98;;;1.63;;
53710;SDS011;39605;52.704;6.752;2023-09-19T08:59:37;9.23;;;1.75;;
53710;SDS011;39605;52.704;6.752;2023-09-19T09:02:08;9.25;;;1.25;;
53710;SDS011;39605;52.704;6.752;2023-09-19T09:04:37;13.32;;;2.15;;
53710;SDS011;39605;52.704;6.752;2023-09-19T09:07:04;8.40;;;1.95;;
53710;SDS011;39605;52.704;6.752;2023-09-19T09:09:30;12.35;;;1.73;;
53710;SDS011;39605;52.704;6.752;2023-09-19T09:11:57;10.48;;;1.85;;
53710;SDS011;39605;52.704;6.752;2023-09-19T09:14:24;11.10;;;1.67;;
53710;SDS011;39605;52.704;6.752;2023-09-19T09:16:50;11.13;;;2.00;;
53710;SDS011;39605;52.704;6.752;2023-09-19T09:19:16;7.65;;;1.65;;
53710;SDS011;39605;52.704;6.752;2023-09-19T09:21:49;10.45;;;1.98;;
53710;SDS011;39605;52.704;6.752;2023-09-19T09:24:28;10.38;;;2.00;;
53710;SDS011;39605;52.704;6.752;2023-09-19T09:26:54;8.65;;;1.20;;
53710;SDS011;39605;52.704;6.752;2023-09-19T09:29:41;8.50;;;1.58;;
53710;SDS011;39605;52.704;6.752;2023-09-19T09:34:56;8.82;;;1.45;;
53710;SDS011;39605;52.704;6.752;2023-09-19T09:37:23;8.43;;;1.47;;
53710;SDS011;39605;52.704;6.752;2023-09-19T09:39:54;8.48;;;1.50;;
53710;SDS011;39605;52.704;6.752;2023-09-19T09:42:40;7.75;;;1.25;;
53710;SDS011;39605;52.704;6.752;2023-09-19T09:45:13;10.65;;;1.60;;
53710;SDS011;39605;52.704;6.752;2023-09-19T09:47:46;11.30;;;1.83;;
53710;SDS011;39605;52.704;6.752;2023-09-19T09:50:32;8.73;;;0.98;;
53710;SDS011;39605;52.704;6.752;2023-09-19T09:53:04;11.85;;;1.88;;
53710;SDS011;39605;52.704;6.752;2023-09-19T09:55:56;14.45;;;1.98;;
53710;SDS011;39605;52.704;6.752;2023-09-19T09:58:23;9.63;;;1.02;;
53710;SDS011;39605;52.704;6.752;2023-09-19T10:00:57;9.02;;;1.65;;
53710;SDS011;39605;52.704;6.752;2023-09-19T10:03:35;7.82;;;1.50;;
53710;SDS011;39605;52.704;6.752;2023-09-19T10:06:15;12.23;;;1.75;;
53710;SDS011;39605;52.704;6.752;2023-09-19T10:08:57;10.45;;;1.83;;
53710;SDS011;39605;52.704;6.752;2023-09-19T10:11:29;11.23;;;1.80;;
53710;SDS011;39605;52.704;6.752;2023-09-19T10:13:56;7.35;;;1.42;;
53710;SDS011;39605;52.704;6.752;2023-09-19T10:16:22;10.15;;;1.90;;
53710;SDS011;39605;52.704;6.752;2023-09-19T10:18:50;14.80;;;2.35;;
53710;SDS011;39605;52.704;6.752;2023-09-19T10:21:17;9.43;;;1.60;;
53710;SDS011;39605;52.704;6.752;2023-09-19T10:23:48;8.13;;;1.52;;
53710;SDS011;39605;52.704;6.752;2023-09-19T10:26:17;10.45;;;1.50;;
53710;SDS011;39605;52.704;6.752;2023-09-19T10:28:43;12.02;;;1.83;;
53710;SDS011;39605;52.704;6.752;2023-09-19T10:31:13;9.60;;;1.83;;
53710;SDS011;39605;52.704;6.752;2023-09-19T10:33:44;7.18;;;1.77;;
53710;SDS011;39605;52.704;6.752;2023-09-19T10:36:11;11.13;;;1.83;;
53710;SDS011;39605;52.704;6.752;2023-09-19T10:38:37;9.30;;;1.63;;
53710;SDS011;39605;52.704;6.752;2023-09-19T10:41:06;11.60;;;1.95;;
53710;SDS011;39605;52.704;6.752;2023-09-19T10:43:33;11.68;;;1.83;;
53710;SDS011;39605;52.704;6.752;2023-09-19T10:46:03;10.07;;;1.60;;
53710;SDS011;39605;52.704;6.752;2023-09-19T10:48:32;10.25;;;1.83;;
53710;SDS011;39605;52.704;6.752;2023-09-19T10:56:44;10.80;;;1.65;;
53710;SDS011;39605;52.704;6.752;2023-09-19T10:59:14;11.43;;;1.88;;
53710;SDS011;39605;52.704;6.752;2023-09-19T11:01:42;7.07;;;1.48;;
53710;SDS011;39605;52.704;6.752;2023-09-19T11:04:35;9.70;;;1.67;;
53710;SDS011;39605;52.704;6.752;2023-09-19T11:12:12;10.25;;;1.48;;
53710;SDS011;39605;52.704;6.752;2023-09-19T11:15:11;12.57;;;1.85;;
53710;SDS011;39605;52.704;6.752;2023-09-19T11:17:58;9.05;;;1.70;;
53710;SDS011;39605;52.704;6.752;2023-09-19T11:20:25;9.73;;;1.65;;
53710;SDS011;39605;52.704;6.752;2023-09-19T11:25:43;8.88;;;1.15;;
53710;SDS011;39605;52.704;6.752;2023-09-19T11:30:44;7.63;;;1.15;;
53710;SDS011;39605;52.704;6.752;2023-09-19T11:33:30;6.38;;;1.25;;
53710;SDS011;39605;52.704;6.752;2023-09-19T11:46:28;9.25;;;1.45;;
53710;SDS011;39605;52.704;6.752;2023-09-19T11:48:55;8.50;;;1.30;;
53710;SDS011;39605;52.704;6.752;2023-09-19T11:51:37;8.23;;;1.50;;
53710;SDS011;39605;52.704;6.752;2023-09-19T11:54:10;7.88;;;1.20;;
53710;SDS011;39605;52.704;6.752;2023-09-19T11:56:42;6.63;;;1.00;;
53710;SDS011;39605;52.704;6.752;2023-09-19T11:59:10;10.13;;;2.00;;
53710;SDS011;39605;52.704;6.752;2023-09-19T12:01:36;10.68;;;1.17;;
53710;SDS011;39605;52.704;6.752;2023-09-19T12:04:05;8.40;;;1.63;;
53710;SDS011;39605;52.704;6.752;2023-09-19T12:06:34;11.38;;;1.30;;
53710;SDS011;39605;52.704;6.752;2023-09-19T12:09:01;7.28;;;1.30;;
53710;SDS011;39605;52.704;6.752;2023-09-19T12:11:32;11.15;;;1.45;;
53710;SDS011;39605;52.704;6.752;2023-09-19T12:13:58;7.30;;;0.93;;
53710;SDS011;39605;52.704;6.752;2023-09-19T12:16:28;7.80;;;1.15;;
53710;SDS011;39605;52.704;6.752;2023-09-19T12:18:56;7.60;;;0.88;;
53710;SDS011;39605;52.704;6.752;2023-09-19T12:23:56;8.73;;;1.38;;
53710;SDS011;39605;52.704;6.752;2023-09-19T12:26:23;8.25;;;1.20;;
53710;SDS011;39605;52.704;6.752;2023-09-19T12:28:49;7.35;;;1.08;;
53710;SDS011;39605;52.704;6.752;2023-09-19T12:31:17;5.45;;;0.80;;
53710;SDS011;39605;52.704;6.752;2023-09-19T12:33:44;4.43;;;0.85;;
53710;SDS011;39605;52.704;6.752;2023-09-19T12:36:20;8.13;;;1.35;;
53710;SDS011;39605;52.704;6.752;2023-09-19T12:38:53;6.13;;;1.02;;
53710;SDS011;39605;52.704;6.752;2023-09-19T12:41:20;6.20;;;1.10;;
53710;SDS011;39605;52.704;6.752;2023-09-19T12:43:47;8.95;;;1.20;;
53710;SDS011;39605;52.704;6.752;2023-09-19T12:46:13;7.45;;;1.23;;
53710;SDS011;39605;52.704;6.752;2023-09-19T12:48:40;4.13;;;0.65;;
53710;SDS011;39605;52.704;6.752;2023-09-19T12:51:10;7.53;;;1.38;;
53710;SDS011;39605;52.704;6.752;2023-09-19T12:56:15;7.15;;;0.85;;
53710;SDS011;39605;52.704;6.752;2023-09-19T12:59:42;7.65;;;1.08;;
53710;SDS011;39605;52.704;6.752;2023-09-19T13:01:38;7.07;;;1.17;;
53710;SDS011;39605;52.704;6.752;2023-09-19T13:04:21;5.03;;;1.13;;
53710;SDS011;39605;52.704;6.752;2023-09-19T13:09:20;5.55;;;1.05;;
53710;SDS011;39605;52.704;6.752;2023-09-19T13:11:47;7.47;;;1.10;;
53710;SDS011;39605;52.704;6.752;2023-09-19T13:14:25;7.63;;;1.58;;
53710;SDS011;39605;52.704;6.752;2023-09-19T13:16:57;5.78;;;1.00;;
53710;SDS011;39605;52.704;6.752;2023-09-19T13:19:38;7.68;;;0.77;;
53710;SDS011;39605;52.704;6.752;2023-09-19T13:22:35;3.45;;;0.70;;
53710;SDS011;39605;52.704;6.752;2023-09-19T13:24:51;8.07;;;1.17;;
53710;SDS011;39605;52.704;6.752;2023-09-19T13:27:17;6.28;;;0.88;;
53710;SDS011;39605;52.704;6.752;2023-09-19T13:29:43;5.47;;;0.70;;
53710;SDS011;39605;52.704;6.752;2023-09-19T13:32:09;5.88;;;0.80;;
53710;SDS011;39605;52.704;6.752;2023-09-19T13:34:36;4.28;;;0.60;;
53710;SDS011;39605;52.704;6.752;2023-09-19T13:37:03;7.18;;;1.00;;
53710;SDS011;39605;52.704;6.752;2023-09-19T13:39:29;5.00;;;0.70;;
53710;SDS011;39605;52.704;6.752;2023-09-19T13:41:56;5.10;;;0.60;;
53710;SDS011;39605;52.704;6.752;2023-09-19T13:44:22;7.47;;;0.75;;
53710;SDS011;39605;52.704;6.752;2023-09-19T13:46:48;5.57;;;0.90;;
53710;SDS011;39605;52.704;6.752;2023-09-19T13:49:14;6.95;;;0.93;;
53710;SDS011;39605;52.704;6.752;2023-09-19T13:51:40;7.88;;;0.75;;
53710;SDS011;39605;52.704;6.752;2023-09-19T13:54:08;5.45;;;0.82;;
53710;SDS011;39605;52.704;6.752;2023-09-19T13:56:37;5.03;;;0.60;;
53710;SDS011;39605;52.704;6.752;2023-09-19T13:59:03;4.60;;;0.60;;
53710;SDS011;39605;52.704;6.752;2023-09-19T14:01:29;4.05;;;0.50;;
53710;SDS011;39605;52.704;6.752;2023-09-19T14:03:56;5.20;;;0.68;;
53710;SDS011;39605;52.704;6.752;2023-09-19T14:06:22;4.45;;;0.88;;
53710;SDS011;39605;52.704;6.752;2023-09-19T14:08:48;5.68;;;0.65;;
53710;SDS011;39605;52.704;6.752;2023-09-19T14:11:15;3.78;;;0.50;;
53710;SDS011;39605;52.704;6.752;2023-09-19T14:13:41;4.95;;;0.30;;
53710;SDS011;39605;52.704;6.752;2023-09-19T14:16:12;5.50;;;0.60;;
53710;SDS011;39605;52.704;6.752;2023-09-19T14:18:38;6.50;;;0.40;;
53710;SDS011;39605;52.704;6.752;2023-09-19T14:21:05;3.20;;;0.40;;
53710;SDS011;39605;52.704;6.752;2023-09-19T14:23:37;2.88;;;0.40;;
53710;SDS011;39605;52.704;6.752;2023-09-19T14:26:04;5.22;;;0.40;;
53710;SDS011;39605;52.704;6.752;2023-09-19T14:28:31;2.42;;;0.40;;
53710;SDS011;39605;52.704;6.752;2023-09-19T14:31:03;3.80;;;0.50;;
53710;SDS011;39605;52.704;6.752;2023-09-19T14:33:30;3.47;;;0.40;;
53710;SDS011;39605;52.704;6.752;2023-09-19T14:35:56;3.97;;;0.40;;
53710;SDS011;39605;52.704;6.752;2023-09-19T14:38:22;5.00;;;0.47;;
53710;SDS011;39605;52.704;6.752;2023-09-19T14:40:48;5.13;;;0.40;;
53710;SDS011;39605;52.704;6.752;2023-09-19T14:43:15;5.82;;;0.60;;
53710;SDS011;39605;52.704;6.752;2023-09-19T14:45:42;5.55;;;0.50;;
53710;SDS011;39605;52.704;6.752;2023-09-19T14:48:08;4.35;;;0.57;;
53710;SDS011;39605;52.704;6.752;2023-09-19T14:50:34;3.63;;;0.50;;
53710;SDS011;39605;52.704;6.752;2023-09-19T14:53:00;5.35;;;0.32;;
53710;SDS011;39605;52.704;6.752;2023-09-19T14:55:27;3.17;;;0.40;;
53710;SDS011;39605;52.704;6.752;2023-09-19T14:57:59;5.47;;;0.50;;
53710;SDS011;39605;52.704;6.752;2023-09-19T15:00:27;2.97;;;0.57;;
53710;SDS011;39605;52.704;6.752;2023-09-19T15:02:53;3.90;;;0.40;;
53710;SDS011;39605;52.704;6.752;2023-09-19T15:05:21;3.67;;;0.50;;
53710;SDS011;39605;52.704;6.752;2023-09-19T15:07:47;4.15;;;0.40;;
53710;SDS011;39605;52.704;6.752;2023-09-19T15:10:13;2.60;;;0.50;;
53710;SDS011;39605;52.704;6.752;2023-09-19T15:12:39;2.63;;;0.40;;
53710;SDS011;39605;52.704;6.752;2023-09-19T15:15:06;4.00;;;0.43;;
53710;SDS011;39605;52.704;6.752;2023-09-19T15:17:33;2.85;;;0.32;;
53710;SDS011;39605;52.704;6.752;2023-09-19T15:19:59;3.60;;;0.40;;
53710;SDS011;39605;52.704;6.752;2023-09-19T15:22:27;1.45;;;0.30;;
53710;SDS011;39605;52.704;6.752;2023-09-19T15:24:53;4.05;;;0.60;;
53710;SDS011;39605;52.704;6.752;2023-09-19T15:27:20;2.05;;;0.32;;
53710;SDS011;39605;52.704;6.752;2023-09-19T15:29:46;5.97;;;0.35;;
53710;SDS011;39605;52.704;6.752;2023-09-19T15:32:12;4.00;;;0.52;;
53710;SDS011;39605;52.704;6.752;2023-09-19T15:34:38;3.35;;;0.63;;
53710;SDS011;39605;52.704;6.752;2023-09-19T15:37:04;3.10;;;0.50;;